sensor_id;sensor_type;location;lat;lon;timestamp;pressure;altitude;pressure_sealevel;temperature;humidity
39435;BME280;30098;51.880;-0.518;2022-10-26T00:01:24;99742.28;;;18.79;52.44
39435;BME280;30098;51.880;-0.518;2022-10-26T00:03:50;99743.13;;;18.79;52.59
39435;BME280;30098;51.880;-0.518;2022-10-26T00:06:21;99746.97;;;18.78;52.59
39435;BME280;30098;51.880;-0.518;2022-10-26T00:08:48;99731.72;;;18.77;52.78
39435;BME280;30098;51.880;-0.518;2022-10-26T00:11:14;99732.50;;;18.78;52.60
39435;BME280;30098;51.880;-0.518;2022-10-26T00:13:40;99720.81;;;18.77;52.71
39435;BME280;30098;51.880;-0.518;2022-10-26T00:16:12;99722.72;;;18.77;52.72
39435;BME280;30098;51.880;-0.518;2022-10-26T00:18:38;99711.34;;;18.75;52.64
39435;BME280;30098;51.880;-0.518;2022-10-26T00:21:05;99704.75;;;18.76;52.69
39435;BME280;30098;51.880;-0.518;2022-10-26T00:23:32;99700.09;;;18.76;52.61
39435;BME280;30098;51.880;-0.518;2022-10-26T00:25:57;99702.03;;;18.76;52.63
39435;BME280;30098;51.880;-0.518;2022-10-26T00:28:23;99700.09;;;18.76;52.65
39435;BME280;30098;51.880;-0.518;2022-10-26T00:30:48;99703.16;;;18.75;52.71
39435;BME280;30098;51.880;-0.518;2022-10-26T00:33:14;99707.50;;;18.76;52.60
39435;BME280;30098;51.880;-0.518;2022-10-26T00:35:39;99707.00;;;18.73;52.45
39435;BME280;30098;51.880;-0.518;2022-10-26T00:38:05;99702.34;;;18.74;52.71
39435;BME280;30098;51.880;-0.518;2022-10-26T00:40:30;99692.88;;;18.71;52.75
39435;BME280;30098;51.880;-0.518;2022-10-26T00:42:56;99689.81;;;18.73;52.68
39435;BME280;30098;51.880;-0.518;2022-10-26T00:45:24;99690.63;;;18.73;52.58
39435;BME280;30098;51.880;-0.518;2022-10-26T00:48:19;99685.97;;;18.74;52.73
39435;BME280;30098;51.880;-0.518;2022-10-26T00:50:47;99679.72;;;18.73;52.88
39435;BME280;30098;51.880;-0.518;2022-10-26T00:53:13;99678.91;;;18.73;52.79
39435;BME280;30098;51.880;-0.518;2022-10-26T00:55:45;99678.91;;;18.73;52.87
39435;BME280;30098;51.880;-0.518;2022-10-26T00:58:11;99656.50;;;18.58;52.91
39435;BME280;30098;51.880;-0.518;2022-10-26T01:00:40;99673.78;;;18.71;52.70
39435;BME280;30098;51.880;-0.518;2022-10-26T01:03:07;99670.25;;;18.71;52.59
39435;BME280;30098;51.880;-0.518;2022-10-26T01:05:34;99671.06;;;18.71;52.87
39435;BME280;30098;51.880;-0.518;2022-10-26T01:08:01;99636.94;;;18.56;52.81
39435;BME280;30098;51.880;-0.518;2022-10-26T01:10:27;99662.25;;;18.66;52.66
39435;BME280;30098;51.880;-0.518;2022-10-26T01:12:54;99672.19;;;18.70;52.86
39435;BME280;30098;51.880;-0.518;2022-10-26T01:15:23;99667.53;;;18.71;52.61
39435;BME280;30098;51.880;-0.518;2022-10-26T01:18:05;99675.72;;;18.71;52.87
39435;BME280;30098;51.880;-0.518;2022-10-26T01:21:09;99671.38;;;18.70;52.70
39435;BME280;30098;51.880;-0.518;2022-10-26T01:26:18;99674.13;;;18.70;52.71
39435;BME280;30098;51.880;-0.518;2022-10-26T01:34:42;99654.09;;;18.57;52.74
39435;BME280;30098;51.880;-0.518;2022-10-26T01:37:11;99656.97;;;18.61;52.67
39435;BME280;30098;51.880;-0.518;2022-10-26T01:39:45;99664.31;;;18.69;52.98
39435;BME280;30098;51.880;-0.518;2022-10-26T01:42:14;99668.19;;;18.68;52.84
39435;BME280;30098;51.880;-0.518;2022-10-26T01:44:47;99668.19;;;18.68;52.85
39435;BME280;30098;51.880;-0.518;2022-10-26T01:47:15;99672.03;;;18.67;53.01
39435;BME280;30098;51.880;-0.518;2022-10-26T01:49:47;99657.13;;;18.64;52.95
39435;BME280;30098;51.880;-0.518;2022-10-26T01:52:14;99661.94;;;18.67;53.00
39435;BME280;30098;51.880;-0.518;2022-10-26T01:54:39;99649.75;;;18.65;52.84
39435;BME280;30098;51.880;-0.518;2022-10-26T01:57:08;99655.66;;;18.67;53.00
39435;BME280;30098;51.880;-0.518;2022-10-26T01:59:56;99639.28;;;18.67;52.95
39435;BME280;30098;51.880;-0.518;2022-10-26T02:10:28;99633.38;;;18.65;53.09
39435;BME280;30098;51.880;-0.518;2022-10-26T02:13:08;99629.03;;;18.64;52.93
39435;BME280;30098;51.880;-0.518;2022-10-26T02:15:52;99629.84;;;18.64;53.13
39435;BME280;30098;51.880;-0.518;2022-10-26T02:19:00;99632.09;;;18.62;52.87
39435;BME280;30098;51.880;-0.518;2022-10-26T02:21:32;99624.72;;;18.63;52.90
39435;BME280;30098;51.880;-0.518;2022-10-26T02:24:00;99619.25;;;18.63;52.96
39435;BME280;30098;51.880;-0.518;2022-10-26T02:26:29;99595.72;;;18.49;52.89
39435;BME280;30098;51.880;-0.518;2022-10-26T02:29:01;99609.94;;;18.64;53.08
39435;BME280;30098;51.880;-0.518;2022-10-26T02:31:30;99597.34;;;18.50;53.11
39435;BME280;30098;51.880;-0.518;2022-10-26T02:33:59;99614.94;;;18.62;53.16
39435;BME280;30098;51.880;-0.518;2022-10-26T02:36:30;99610.25;;;18.62;52.88
39435;BME280;30098;51.880;-0.518;2022-10-26T02:38:58;99606.75;;;18.62;52.86
39435;BME280;30098;51.880;-0.518;2022-10-26T02:41:25;99612.19;;;18.62;53.14
39435;BME280;30098;51.880;-0.518;2022-10-26T02:43:58;99600.50;;;18.61;53.04
39435;BME280;30098;51.880;-0.518;2022-10-26T02:46:25;99602.41;;;18.61;52.83
39435;BME280;30098;51.880;-0.518;2022-10-26T02:48:53;99598.56;;;18.62;53.03
39435;BME280;30098;51.880;-0.518;2022-10-26T02:51:44;99595.03;;;18.61;53.01
39435;BME280;30098;51.880;-0.518;2022-10-26T02:54:18;99581.41;;;18.61;52.92
39435;BME280;30098;51.880;-0.518;2022-10-26T02:56:58;99578.66;;;18.61;53.04
39435;BME280;30098;51.880;-0.518;2022-10-26T02:59:27;99575.94;;;18.61;53.06
39435;BME280;30098;51.880;-0.518;2022-10-26T03:01:55;99571.91;;;18.58;52.99
39435;BME280;30098;51.880;-0.518;2022-10-26T03:04:28;99581.41;;;18.61;53.19
39435;BME280;30098;51.880;-0.518;2022-10-26T03:06:54;99563.63;;;18.46;53.05
39435;BME280;30098;51.880;-0.518;2022-10-26T03:09:20;99596.94;;;18.61;53.17
39435;BME280;30098;51.880;-0.518;2022-10-26T03:11:45;99574.22;;;18.48;53.14
39435;BME280;30098;51.880;-0.518;2022-10-26T03:14:11;99589.91;;;18.60;53.17
39435;BME280;30098;51.880;-0.518;2022-10-26T03:16:36;99598.91;;;18.60;52.92
39435;BME280;30098;51.880;-0.518;2022-10-26T03:19:02;99603.22;;;18.61;52.91
39435;BME280;30098;51.880;-0.518;2022-10-26T03:21:27;99601.63;;;18.60;53.06
39435;BME280;30098;51.880;-0.518;2022-10-26T03:23:53;99569.88;;;18.47;53.01
39435;BME280;30098;51.880;-0.518;2022-10-26T03:26:19;99596.16;;;18.60;53.17
39435;BME280;30098;51.880;-0.518;2022-10-26T03:28:44;99593.44;;;18.60;53.00
39435;BME280;30098;51.880;-0.518;2022-10-26T03:31:10;99601.94;;;18.58;53.13
39435;BME280;30098;51.880;-0.518;2022-10-26T03:33:36;99596.47;;;18.58;53.26
39435;BME280;30098;51.880;-0.518;2022-10-26T03:36:01;99596.47;;;18.58;53.09
39435;BME280;30098;51.880;-0.518;2022-10-26T03:38:27;99606.25;;;18.60;53.06
39435;BME280;30098;51.880;-0.518;2022-10-26T03:40:52;99616.38;;;18.59;53.08
39435;BME280;30098;51.880;-0.518;2022-10-26T03:43:18;99602.75;;;18.59;53.12
39435;BME280;30098;51.880;-0.518;2022-10-26T03:46:09;99608.19;;;18.59;52.98
39435;BME280;30098;51.880;-0.518;2022-10-26T03:48:35;99608.19;;;18.59;53.10
39435;BME280;30098;51.880;-0.518;2022-10-26T03:51:00;99607.09;;;18.51;53.04
39435;BME280;30098;51.880;-0.518;2022-10-26T03:53:26;99617.50;;;18.58;52.98
39435;BME280;30098;51.880;-0.518;2022-10-26T03:55:51;99610.94;;;18.59;52.92
39435;BME280;30098;51.880;-0.518;2022-10-26T03:58:17;99606.59;;;18.58;53.03
39435;BME280;30098;51.880;-0.518;2022-10-26T04:00:42;99597.63;;;18.57;53.10
39435;BME280;30098;51.880;-0.518;2022-10-26T04:03:08;99605.00;;;18.57;53.12
39435;BME280;30098;51.880;-0.518;2022-10-26T04:05:33;99605.00;;;18.57;53.03
39435;BME280;30098;51.880;-0.518;2022-10-26T04:08:00;99608.53;;;18.57;52.89
39435;BME280;30098;51.880;-0.518;2022-10-26T04:10:29;99603.09;;;18.57;53.18
39435;BME280;30098;51.880;-0.518;2022-10-26T04:12:55;99610.44;;;18.57;52.93
39435;BME280;30098;51.880;-0.518;2022-10-26T04:15:23;99590.28;;;18.49;53.11
39435;BME280;30098;51.880;-0.518;2022-10-26T04:17:57;99611.25;;;18.57;53.11
39435;BME280;30098;51.880;-0.518;2022-10-26T04:20:24;99594.91;;;18.49;52.99
39435;BME280;30098;51.880;-0.518;2022-10-26T04:23:01;99614.78;;;18.58;53.17
39435;BME280;30098;51.880;-0.518;2022-10-26T04:25:27;99604.56;;;18.46;53.11
39435;BME280;30098;51.880;-0.518;2022-10-26T04:27:53;99596.22;;;18.42;52.98
39435;BME280;30098;51.880;-0.518;2022-10-26T04:30:19;99547.75;;;18.09;53.11
39435;BME280;30098;51.880;-0.518;2022-10-26T04:32:45;99588.91;;;18.25;53.16
39435;BME280;30098;51.880;-0.518;2022-10-26T04:35:10;99637.72;;;18.57;53.07
39435;BME280;30098;51.880;-0.518;2022-10-26T04:37:36;99633.41;;;18.56;53.06
39435;BME280;30098;51.880;-0.518;2022-10-26T04:40:02;99610.16;;;18.50;53.27
39435;BME280;30098;51.880;-0.518;2022-10-26T04:42:27;99626.81;;;18.57;53.33
39435;BME280;30098;51.880;-0.518;2022-10-26T04:44:53;99636.94;;;18.56;53.15
39435;BME280;30098;51.880;-0.518;2022-10-26T04:47:19;99638.06;;;18.55;53.17
39435;BME280;30098;51.880;-0.518;2022-10-26T04:49:44;99625.72;;;18.49;53.08
39435;BME280;30098;51.880;-0.518;2022-10-26T04:52:10;99631.78;;;18.55;53.13
39435;BME280;30098;51.880;-0.518;2022-10-26T04:54:35;99639.97;;;18.55;53.18
39435;BME280;30098;51.880;-0.518;2022-10-26T04:57:01;99630.22;;;18.54;53.17
39435;BME280;30098;51.880;-0.518;2022-10-26T04:59:26;99632.59;;;18.55;53.30
39435;BME280;30098;51.880;-0.518;2022-10-26T05:01:52;99633.41;;;18.56;52.97
39435;BME280;30098;51.880;-0.518;2022-10-26T05:04:17;99637.25;;;18.55;53.00
39435;BME280;30098;51.880;-0.518;2022-10-26T05:06:43;99626.53;;;18.50;53.00
39435;BME280;30098;51.880;-0.518;2022-10-26T05:09:08;99635.66;;;18.54;53.09
39435;BME280;30098;51.880;-0.518;2022-10-26T05:11:34;99634.50;;;18.55;53.20
39435;BME280;30098;51.880;-0.518;2022-10-26T05:13:59;99644.63;;;18.54;53.27
39435;BME280;30098;51.880;-0.518;2022-10-26T05:16:25;99659.06;;;18.55;53.16
39435;BME280;30098;51.880;-0.518;2022-10-26T05:18:50;99674.66;;;18.54;52.93
39435;BME280;30098;51.880;-0.518;2022-10-26T05:21:16;99680.09;;;18.54;53.04
39435;BME280;30098;51.880;-0.518;2022-10-26T05:23:48;99682.81;;;18.54;53.10
39435;BME280;30098;51.880;-0.518;2022-10-26T05:26:15;99684.75;;;18.54;53.25
39435;BME280;30098;51.880;-0.518;2022-10-26T05:28:41;99687.50;;;18.54;53.26
39435;BME280;30098;51.880;-0.518;2022-10-26T05:31:06;99684.75;;;18.54;53.12
39435;BME280;30098;51.880;-0.518;2022-10-26T05:33:32;99686.69;;;18.53;53.13
39435;BME280;30098;51.880;-0.518;2022-10-26T05:35:57;99692.13;;;18.53;53.20
39435;BME280;30098;51.880;-0.518;2022-10-26T05:38:23;99692.94;;;18.54;53.11
39435;BME280;30098;51.880;-0.518;2022-10-26T05:40:50;99699.53;;;18.53;53.25
39435;BME280;30098;51.880;-0.518;2022-10-26T05:43:16;99695.69;;;18.54;53.13
39435;BME280;30098;51.880;-0.518;2022-10-26T05:45:42;99695.03;;;18.48;52.93
39435;BME280;30098;51.880;-0.518;2022-10-26T05:48:08;99703.88;;;18.54;53.17
39435;BME280;30098;51.880;-0.518;2022-10-26T05:50:33;99711.22;;;18.53;53.12
39435;BME280;30098;51.880;-0.518;2022-10-26T05:52:59;99703.03;;;18.53;53.20
39435;BME280;30098;51.880;-0.518;2022-10-26T05:55:25;99703.53;;;18.47;53.09
39435;BME280;30098;51.880;-0.518;2022-10-26T05:57:50;99718.63;;;18.53;53.24
39435;BME280;30098;51.880;-0.518;2022-10-26T06:00:24;99700.66;;;18.43;52.89
39435;BME280;30098;51.880;-0.518;2022-10-26T06:05:53;99715.88;;;18.53;53.24
39435;BME280;30098;51.880;-0.518;2022-10-26T06:08:21;99708.00;;;18.51;52.88
39435;BME280;30098;51.880;-0.518;2022-10-26T06:10:48;99703.84;;;18.45;52.95
39435;BME280;30098;51.880;-0.518;2022-10-26T06:13:14;99717.00;;;18.52;53.11
39435;BME280;30098;51.880;-0.518;2022-10-26T06:21:14;99711.56;;;18.52;53.06
39435;BME280;30098;51.880;-0.518;2022-10-26T06:23:54;99715.41;;;18.51;52.97
39435;BME280;30098;51.880;-0.518;2022-10-26T06:29:13;99726.31;;;18.51;53.25
39435;BME280;30098;51.880;-0.518;2022-10-26T06:31:43;99717.34;;;18.50;53.09
39435;BME280;30098;51.880;-0.518;2022-10-26T06:34:10;99713.97;;;18.45;53.09
39435;BME280;30098;51.880;-0.518;2022-10-26T06:36:37;99699.69;;;18.39;53.12
39435;BME280;30098;51.880;-0.518;2022-10-26T06:39:09;99720.88;;;18.51;53.20
39435;BME280;30098;51.880;-0.518;2022-10-26T06:41:36;99726.31;;;18.51;53.00
39435;BME280;30098;51.880;-0.518;2022-10-26T06:44:03;99731.28;;;18.49;53.08
39435;BME280;30098;51.880;-0.518;2022-10-26T06:46:44;99736.44;;;18.50;53.06
39435;BME280;30098;51.880;-0.518;2022-10-26T06:52:09;99727.13;;;18.42;53.20
39435;BME280;30098;51.880;-0.518;2022-10-26T06:54:46;99730.16;;;18.50;53.01
39435;BME280;30098;51.880;-0.518;2022-10-26T06:57:20;99725.19;;;18.43;53.04
39435;BME280;30098;51.880;-0.518;2022-10-26T06:59:52;99738.97;;;18.47;53.33
39435;BME280;30098;51.880;-0.518;2022-10-26T07:02:19;99678.09;;;18.07;53.26
39435;BME280;30098;51.880;-0.518;2022-10-26T07:04:45;99733.22;;;18.48;53.10
39435;BME280;30098;51.880;-0.518;2022-10-26T07:07:14;99737.56;;;18.49;52.97
39435;BME280;30098;51.880;-0.518;2022-10-26T07:09:40;99703.06;;;18.36;53.23
39435;BME280;30098;51.880;-0.518;2022-10-26T07:12:07;99721.34;;;18.53;54.04
39435;BME280;30098;51.880;-0.518;2022-10-26T07:14:32;99727.25;;;18.55;53.29
39435;BME280;30098;51.880;-0.518;2022-10-26T07:16:57;99724.06;;;18.53;52.86
39435;BME280;30098;51.880;-0.518;2022-10-26T07:19:23;99734.81;;;18.58;53.10
39435;BME280;30098;51.880;-0.518;2022-10-26T07:21:49;99739.13;;;18.59;53.03
39435;BME280;30098;51.880;-0.518;2022-10-26T07:24:14;99728.06;;;18.55;52.77
39435;BME280;30098;51.880;-0.518;2022-10-26T07:26:40;99749.53;;;18.66;53.03
39435;BME280;30098;51.880;-0.518;2022-10-26T07:29:05;99731.75;;;18.68;53.09
39435;BME280;30098;51.880;-0.518;2022-10-26T07:31:31;99726.44;;;18.63;52.75
39435;BME280;30098;51.880;-0.518;2022-10-26T07:33:57;99684.31;;;18.34;53.06
39435;BME280;30098;51.880;-0.518;2022-10-26T07:36:22;99736.34;;;18.77;53.04
39435;BME280;30098;51.880;-0.518;2022-10-26T07:38:52;99730.44;;;18.75;52.87
39435;BME280;30098;51.880;-0.518;2022-10-26T07:41:18;99739.22;;;18.80;52.96
39435;BME280;30098;51.880;-0.518;2022-10-26T07:43:44;99747.13;;;18.82;53.16
39435;BME280;30098;51.880;-0.518;2022-10-26T07:46:11;99747.91;;;18.82;53.47
39435;BME280;30098;51.880;-0.518;2022-10-26T07:48:37;99699.81;;;18.51;53.65
39435;BME280;30098;51.880;-0.518;2022-10-26T07:51:04;99757.38;;;18.85;54.24
39435;BME280;30098;51.880;-0.518;2022-10-26T07:53:29;99729.66;;;18.65;53.94
39435;BME280;30098;51.880;-0.518;2022-10-26T07:55:56;99768.75;;;18.87;53.90
39435;BME280;30098;51.880;-0.518;2022-10-26T07:58:22;99764.09;;;18.87;54.31
39435;BME280;30098;51.880;-0.518;2022-10-26T08:00:51;99773.59;;;18.90;54.29
39435;BME280;30098;51.880;-0.518;2022-10-26T08:07:16;99772.44;;;18.91;54.96
39435;BME280;30098;51.880;-0.518;2022-10-26T08:09:42;99774.56;;;18.85;55.35
39435;BME280;30098;51.880;-0.518;2022-10-26T08:12:07;99789.00;;;18.95;54.96
39435;BME280;30098;51.880;-0.518;2022-10-26T08:14:33;99786.25;;;18.95;56.32
39435;BME280;30098;51.880;-0.518;2022-10-26T08:16:58;99780.81;;;18.95;57.06
39435;BME280;30098;51.880;-0.518;2022-10-26T08:19:23;99771.34;;;18.83;55.98
39435;BME280;30098;51.880;-0.518;2022-10-26T08:21:49;99794.59;;;18.98;57.98
39435;BME280;30098;51.880;-0.518;2022-10-26T08:24:14;99802.63;;;19.03;59.35
39435;BME280;30098;51.880;-0.518;2022-10-26T08:26:41;99801.66;;;18.99;57.29
39435;BME280;30098;51.880;-0.518;2022-10-26T08:29:06;99805.38;;;19.03;57.45
39435;BME280;30098;51.880;-0.518;2022-10-26T08:31:32;99807.13;;;19.08;57.38
39435;BME280;30098;51.880;-0.518;2022-10-26T08:33:57;99747.28;;;18.68;57.55
39435;BME280;30098;51.880;-0.518;2022-10-26T08:36:25;99809.03;;;19.08;57.81
39435;BME280;30098;51.880;-0.518;2022-10-26T08:38:51;99819.78;;;19.13;58.26
39435;BME280;30098;51.880;-0.518;2022-10-26T08:41:20;99800.03;;;19.16;57.80
39435;BME280;30098;51.880;-0.518;2022-10-26T08:43:52;99800.16;;;19.19;58.10
39435;BME280;30098;51.880;-0.518;2022-10-26T08:46:25;99799.53;;;19.23;60.96
39435;BME280;30098;51.880;-0.518;2022-10-26T08:48:59;99791.66;;;19.21;58.26
39435;BME280;30098;51.880;-0.518;2022-10-26T08:51:31;99792.75;;;19.29;58.73
39435;BME280;30098;51.880;-0.518;2022-10-26T08:56:51;99805.94;;;19.27;57.61
39435;BME280;30098;51.880;-0.518;2022-10-26T08:59:39;99840.91;;;19.42;57.55
39435;BME280;30098;51.880;-0.518;2022-10-26T09:02:15;99848.91;;;19.47;57.08
39435;BME280;30098;51.880;-0.518;2022-10-26T09:04:41;99847.78;;;19.48;57.14
39435;BME280;30098;51.880;-0.518;2022-10-26T09:12:22;99850.16;;;19.59;56.09
39435;BME280;30098;51.880;-0.518;2022-10-26T09:14:57;99856.06;;;19.61;56.18
39435;BME280;30098;51.880;-0.518;2022-10-26T09:17:54;99855.44;;;19.64;56.40
39435;BME280;30098;51.880;-0.518;2022-10-26T09:25:24;99849.13;;;19.72;55.77
39435;BME280;30098;51.880;-0.518;2022-10-26T09:27:59;99860.22;;;19.76;55.90
39435;BME280;30098;51.880;-0.518;2022-10-26T09:30:25;99852.38;;;19.65;56.21
39435;BME280;30098;51.880;-0.518;2022-10-26T09:32:55;99849.47;;;19.71;55.47
39435;BME280;30098;51.880;-0.518;2022-10-26T09:35:46;99876.88;;;19.83;55.64
39435;BME280;30098;51.880;-0.518;2022-10-26T09:38:23;99884.78;;;19.84;55.31
39435;BME280;30098;51.880;-0.518;2022-10-26T09:43:42;99900.00;;;19.94;55.61
39435;BME280;30098;51.880;-0.518;2022-10-26T09:46:40;99907.22;;;19.99;55.06
39435;BME280;30098;51.880;-0.518;2022-10-26T09:49:10;99892.00;;;19.89;55.30
39435;BME280;30098;51.880;-0.518;2022-10-26T09:51:38;99903.03;;;20.02;54.93
39435;BME280;30098;51.880;-0.518;2022-10-26T09:54:15;99915.41;;;20.08;54.75
39435;BME280;30098;51.880;-0.518;2022-10-26T09:56:43;99911.50;;;20.09;54.38
39435;BME280;30098;51.880;-0.518;2022-10-26T09:59:11;99907.66;;;20.10;54.47
39435;BME280;30098;51.880;-0.518;2022-10-26T10:01:37;99923.41;;;20.13;54.38
39435;BME280;30098;51.880;-0.518;2022-10-26T10:04:23;99927.41;;;20.15;54.36
39435;BME280;30098;51.880;-0.518;2022-10-26T10:07:16;99927.88;;;20.18;54.31
39435;BME280;30098;51.880;-0.518;2022-10-26T10:09:42;99884.00;;;19.84;54.14
39435;BME280;30098;51.880;-0.518;2022-10-26T10:12:18;99931.91;;;20.20;54.08
39435;BME280;30098;51.880;-0.518;2022-10-26T10:14:55;99933.66;;;20.16;54.79
39435;BME280;30098;51.880;-0.518;2022-10-26T10:17:22;99948.59;;;20.27;54.52
39435;BME280;30098;51.880;-0.518;2022-10-26T10:19:48;99947.13;;;20.30;54.59
39435;BME280;30098;51.880;-0.518;2022-10-26T10:24:41;99956.53;;;20.41;54.70
39435;BME280;30098;51.880;-0.518;2022-10-26T10:29:42;99965.84;;;20.49;54.29
39435;BME280;30098;51.880;-0.518;2022-10-26T10:32:15;99952.63;;;20.51;54.42
39435;BME280;30098;51.880;-0.518;2022-10-26T10:34:42;99966.13;;;20.56;54.32
39435;BME280;30098;51.880;-0.518;2022-10-26T10:37:37;99969.78;;;20.60;53.67
39435;BME280;30098;51.880;-0.518;2022-10-26T10:42:45;99981.69;;;20.65;53.75
39435;BME280;30098;51.880;-0.518;2022-10-26T10:45:23;99983.28;;;20.66;53.51
39435;BME280;30098;51.880;-0.518;2022-10-26T10:48:02;99988.41;;;20.67;53.63
39435;BME280;30098;51.880;-0.518;2022-10-26T10:50:29;99995.84;;;20.67;53.49
39435;BME280;30098;51.880;-0.518;2022-10-26T10:53:18;99994.69;;;20.68;53.54
39435;BME280;30098;51.880;-0.518;2022-10-26T10:58:27;100003.38;;;20.70;53.16
39435;BME280;30098;51.880;-0.518;2022-10-26T11:00:57;99999.50;;;20.71;53.12
39435;BME280;30098;51.880;-0.518;2022-10-26T11:03:43;100016.72;;;20.71;53.14
39435;BME280;30098;51.880;-0.518;2022-10-26T11:06:17;100010.16;;;20.72;53.05
39435;BME280;30098;51.880;-0.518;2022-10-26T11:09:01;100027.38;;;20.73;53.05
39435;BME280;30098;51.880;-0.518;2022-10-26T11:11:40;100029.00;;;20.74;52.83
39435;BME280;30098;51.880;-0.518;2022-10-26T11:14:24;100037.22;;;20.74;52.48
39435;BME280;30098;51.880;-0.518;2022-10-26T11:16:56;100030.56;;;20.75;52.77
39435;BME280;30098;51.880;-0.518;2022-10-26T11:19:47;100034.13;;;20.75;52.77
39435;BME280;30098;51.880;-0.518;2022-10-26T11:22:17;100034.59;;;20.77;52.26
39435;BME280;30098;51.880;-0.518;2022-10-26T11:25:04;99982.47;;;20.44;52.70
39435;BME280;30098;51.880;-0.518;2022-10-26T11:27:53;100046.00;;;20.79;52.40
39435;BME280;30098;51.880;-0.518;2022-10-26T11:30:22;99993.72;;;20.42;52.00
39435;BME280;30098;51.880;-0.518;2022-10-26T11:38:20;100061.44;;;20.84;52.00
39435;BME280;30098;51.880;-0.518;2022-10-26T11:43:47;100081.09;;;20.86;51.80
39435;BME280;30098;51.880;-0.518;2022-10-26T11:46:25;100083.47;;;20.88;51.73
39435;BME280;30098;51.880;-0.518;2022-10-26T11:49:13;100033.75;;;20.56;51.84
39435;BME280;30098;51.880;-0.518;2022-10-26T11:52:13;100085.09;;;20.89;51.78
39435;BME280;30098;51.880;-0.518;2022-10-26T11:57:13;100087.50;;;20.90;52.33
39435;BME280;30098;51.880;-0.518;2022-10-26T11:59:47;100089.91;;;20.92;52.02
39435;BME280;30098;51.880;-0.518;2022-10-26T12:02:20;100081.72;;;20.92;52.08
39435;BME280;30098;51.880;-0.518;2022-10-26T12:04:52;100087.63;;;20.94;52.13
39435;BME280;30098;51.880;-0.518;2022-10-26T12:07:26;100088.09;;;20.96;52.10
39435;BME280;30098;51.880;-0.518;2022-10-26T12:09:54;100091.63;;;20.97;51.76
39435;BME280;30098;51.880;-0.518;2022-10-26T12:12:28;100091.63;;;20.97;51.87
39435;BME280;30098;51.880;-0.518;2022-10-26T12:17:51;100097.94;;;20.97;52.12
39435;BME280;30098;51.880;-0.518;2022-10-26T12:23:20;100093.09;;;20.94;51.95
39435;BME280;30098;51.880;-0.518;2022-10-26T12:25:46;100101.47;;;20.98;51.82
39435;BME280;30098;51.880;-0.518;2022-10-26T12:28:38;100111.09;;;21.04;51.92
39435;BME280;30098;51.880;-0.518;2022-10-26T12:34:02;100125.75;;;21.08;51.32
39435;BME280;30098;51.880;-0.518;2022-10-26T12:45:00;100136.50;;;21.13;50.96
39435;BME280;30098;51.880;-0.518;2022-10-26T13:01:25;100149.19;;;21.18;51.03
39435;BME280;30098;51.880;-0.518;2022-10-26T13:04:03;100150.81;;;21.19;51.33
39435;BME280;30098;51.880;-0.518;2022-10-26T13:06:41;100142.25;;;21.20;51.39
39435;BME280;30098;51.880;-0.518;2022-10-26T13:09:19;100147.41;;;21.22;51.32
39435;BME280;30098;51.880;-0.518;2022-10-26T13:11:47;100131.34;;;21.12;51.49
39435;BME280;30098;51.880;-0.518;2022-10-26T13:14:26;100151.44;;;21.24;51.58
39435;BME280;30098;51.880;-0.518;2022-10-26T13:16:53;100161.38;;;21.29;51.48
39435;BME280;30098;51.880;-0.518;2022-10-26T13:19:40;100159.91;;;21.32;51.25
39435;BME280;30098;51.880;-0.518;2022-10-26T13:22:21;100132.47;;;21.10;51.02
39435;BME280;30098;51.880;-0.518;2022-10-26T13:25:00;100175.38;;;21.36;51.26
39435;BME280;30098;51.880;-0.518;2022-10-26T13:32:39;100155.78;;;21.25;50.72
39435;BME280;30098;51.880;-0.518;2022-10-26T13:35:12;100182.56;;;21.41;50.72
39435;BME280;30098;51.880;-0.518;2022-10-26T13:37:42;100164.13;;;21.29;50.42
39435;BME280;30098;51.880;-0.518;2022-10-26T13:40:16;100189.19;;;21.40;50.08
39435;BME280;30098;51.880;-0.518;2022-10-26T13:42:53;100190.78;;;21.41;49.98
39435;BME280;30098;51.880;-0.518;2022-10-26T13:45:55;100200.63;;;21.42;49.43
39435;BME280;30098;51.880;-0.518;2022-10-26T13:48:37;100208.84;;;21.42;49.52
39435;BME280;30098;51.880;-0.518;2022-10-26T13:51:17;100213.53;;;21.41;49.67
39435;BME280;30098;51.880;-0.518;2022-10-26T13:56:30;100207.69;;;21.43;49.74
39435;BME280;30098;51.880;-0.518;2022-10-26T14:01:26;100160.66;;;21.11;49.69
39435;BME280;30098;51.880;-0.518;2022-10-26T14:03:53;100218.19;;;21.41;49.62
39435;BME280;30098;51.880;-0.518;2022-10-26T14:06:29;100220.28;;;21.44;50.04
39435;BME280;30098;51.880;-0.518;2022-10-26T14:08:59;100210.31;;;21.39;50.10
39435;BME280;30098;51.880;-0.518;2022-10-26T14:11:31;100212.06;;;21.44;49.73
39435;BME280;30098;51.880;-0.518;2022-10-26T14:13:58;100213.31;;;21.47;50.50
39435;BME280;30098;51.880;-0.518;2022-10-26T14:16:26;100216.41;;;21.45;50.31
39435;BME280;30098;51.880;-0.518;2022-10-26T14:18:53;100228.28;;;21.49;50.55
39435;BME280;30098;51.880;-0.518;2022-10-26T14:21:20;100227.66;;;21.52;50.12
39435;BME280;30098;51.880;-0.518;2022-10-26T14:23:54;100216.88;;;21.47;49.95
39435;BME280;30098;51.880;-0.518;2022-10-26T14:26:28;100241.81;;;21.54;48.59
39435;BME280;30098;51.880;-0.518;2022-10-26T14:28:59;100242.47;;;21.51;47.49
39435;BME280;30098;51.880;-0.518;2022-10-26T14:31:30;100247.47;;;21.49;47.09
39435;BME280;30098;51.880;-0.518;2022-10-26T14:33:57;100252.38;;;21.44;46.39
39435;BME280;30098;51.880;-0.518;2022-10-26T14:39:05;100257.38;;;21.41;47.08
39435;BME280;30098;51.880;-0.518;2022-10-26T14:41:33;100261.72;;;21.42;46.92
39435;BME280;30098;51.880;-0.518;2022-10-26T14:43:59;100251.59;;;21.34;46.23
39435;BME280;30098;51.880;-0.518;2022-10-26T14:46:33;100241.00;;;21.24;45.73
39435;BME280;30098;51.880;-0.518;2022-10-26T14:49:00;100264.50;;;21.34;46.02
39435;BME280;30098;51.880;-0.518;2022-10-26T14:51:28;100257.28;;;21.29;46.08
39435;BME280;30098;51.880;-0.518;2022-10-26T14:53:58;100266.28;;;21.30;45.95
39435;BME280;30098;51.880;-0.518;2022-10-26T14:59:16;100274.38;;;21.26;45.55
39435;BME280;30098;51.880;-0.518;2022-10-26T15:04:35;100268.75;;;21.22;45.31
39435;BME280;30098;51.880;-0.518;2022-10-26T15:09:45;100279.22;;;21.20;45.27